sensor_id;sensor_type;location;lat;lon;timestamp;temperature;humidity
18894;DHT22;9579;49.488;8.226;2023-04-01T00:02:33;12.40;99.90
18894;DHT22;9579;49.488;8.226;2023-04-01T00:05:20;12.20;99.90
18894;DHT22;9579;49.488;8.226;2023-04-01T00:08:07;12.20;99.90
18894;DHT22;9579;49.488;8.226;2023-04-01T00:10:55;12.10;99.90
18894;DHT22;9579;49.488;8.226;2023-04-01T00:13:43;12.10;99.90
18894;DHT22;9579;49.488;8.226;2023-04-01T00:16:31;12.10;99.90
18894;DHT22;9579;49.488;8.226;2023-04-01T00:19:18;12.00;99.90
18894;DHT22;9579;49.488;8.226;2023-04-01T00:22:05;12.10;99.90
18894;DHT22;9579;49.488;8.226;2023-04-01T00:24:53;12.10;99.90
18894;DHT22;9579;49.488;8.226;2023-04-01T00:27:40;12.10;99.90
18894;DHT22;9579;49.488;8.226;2023-04-01T00:30:27;12.10;99.90
18894;DHT22;9579;49.488;8.226;2023-04-01T00:33:16;12.00;99.90
18894;DHT22;9579;49.488;8.226;2023-04-01T00:36:08;12.00;99.90
18894;DHT22;9579;49.488;8.226;2023-04-01T00:38:57;12.00;99.90
18894;DHT22;9579;49.488;8.226;2023-04-01T00:41:44;12.00;99.90
18894;DHT22;9579;49.488;8.226;2023-04-01T00:44:33;12.10;99.90
18894;DHT22;9579;49.488;8.226;2023-04-01T00:47:21;12.10;99.90
18894;DHT22;9579;49.488;8.226;2023-04-01T00:50:10;12.10;99.90
18894;DHT22;9579;49.488;8.226;2023-04-01T00:52:58;12.10;99.90
18894;DHT22;9579;49.488;8.226;2023-04-01T00:55:50;12.20;99.90
18894;DHT22;9579;49.488;8.226;2023-04-01T00:58:41;12.20;99.90
18894;DHT22;9579;49.488;8.226;2023-04-01T01:01:29;12.20;99.90
18894;DHT22;9579;49.488;8.226;2023-04-01T01:04:25;12.20;99.90
18894;DHT22;9579;49.488;8.226;2023-04-01T01:07:20;12.20;99.90
18894;DHT22;9579;49.488;8.226;2023-04-01T01:10:11;12.20;99.90
18894;DHT22;9579;49.488;8.226;2023-04-01T01:13:05;12.10;99.90
18894;DHT22;9579;49.488;8.226;2023-04-01T01:15:58;12.10;99.90
18894;DHT22;9579;49.488;8.226;2023-04-01T01:18:50;12.20;99.90
18894;DHT22;9579;49.488;8.226;2023-04-01T01:21:56;12.20;99.90
18894;DHT22;9579;49.488;8.226;2023-04-01T01:24:56;12.20;99.90
18894;DHT22;9579;49.488;8.226;2023-04-01T01:27:54;12.20;99.90
18894;DHT22;9579;49.488;8.226;2023-04-01T01:30:51;12.20;99.90
18894;DHT22;9579;49.488;8.226;2023-04-01T01:34:06;12.20;99.90
18894;DHT22;9579;49.488;8.226;2023-04-01T01:37:02;12.10;99.90
18894;DHT22;9579;49.488;8.226;2023-04-01T01:39:53;12.10;99.90
18894;DHT22;9579;49.488;8.226;2023-04-01T01:42:45;12.10;99.90
18894;DHT22;9579;49.488;8.226;2023-04-01T01:45:35;12.10;99.90
18894;DHT22;9579;49.488;8.226;2023-04-01T01:48:26;12.10;99.90
18894;DHT22;9579;49.488;8.226;2023-04-01T01:51:14;12.10;99.90
18894;DHT22;9579;49.488;8.226;2023-04-01T01:54:03;12.00;99.90
18894;DHT22;9579;49.488;8.226;2023-04-01T01:56:53;12.00;99.90
18894;DHT22;9579;49.488;8.226;2023-04-01T01:59:43;12.00;99.90
18894;DHT22;9579;49.488;8.226;2023-04-01T02:02:32;12.10;99.90
18894;DHT22;9579;49.488;8.226;2023-04-01T02:05:21;12.10;99.90
18894;DHT22;9579;49.488;8.226;2023-04-01T02:08:13;12.10;99.90
18894;DHT22;9579;49.488;8.226;2023-04-01T02:11:05;11.90;99.90
18894;DHT22;9579;49.488;8.226;2023-04-01T02:13:55;12.00;99.90
18894;DHT22;9579;49.488;8.226;2023-04-01T02:16:45;12.00;99.90
18894;DHT22;9579;49.488;8.226;2023-04-01T02:19:37;11.90;99.90
18894;DHT22;9579;49.488;8.226;2023-04-01T02:22:27;11.90;99.90
18894;DHT22;9579;49.488;8.226;2023-04-01T02:25:18;11.80;99.90
18894;DHT22;9579;49.488;8.226;2023-04-01T02:28:10;11.60;99.90
18894;DHT22;9579;49.488;8.226;2023-04-01T02:30:58;11.60;99.90
18894;DHT22;9579;49.488;8.226;2023-04-01T02:33:48;11.60;99.90
18894;DHT22;9579;49.488;8.226;2023-04-01T02:36:35;11.60;99.90
18894;DHT22;9579;49.488;8.226;2023-04-01T02:39:23;11.60;99.90
18894;DHT22;9579;49.488;8.226;2023-04-01T02:42:11;11.70;99.90
18894;DHT22;9579;49.488;8.226;2023-04-01T02:44:59;11.70;99.90
18894;DHT22;9579;49.488;8.226;2023-04-01T02:47:46;11.70;99.90
18894;DHT22;9579;49.488;8.226;2023-04-01T02:50:33;11.70;99.90
18894;DHT22;9579;49.488;8.226;2023-04-01T02:53:20;11.60;99.90
18894;DHT22;9579;49.488;8.226;2023-04-01T02:56:07;11.70;99.90
18894;DHT22;9579;49.488;8.226;2023-04-01T02:58:55;11.70;99.90
18894;DHT22;9579;49.488;8.226;2023-04-01T03:01:43;11.70;99.90
18894;DHT22;9579;49.488;8.226;2023-04-01T03:04:30;11.70;99.90
18894;DHT22;9579;49.488;8.226;2023-04-01T03:07:17;11.80;99.90
18894;DHT22;9579;49.488;8.226;2023-04-01T03:10:05;11.70;99.90
18894;DHT22;9579;49.488;8.226;2023-04-01T03:12:52;11.70;99.90
18894;DHT22;9579;49.488;8.226;2023-04-01T03:15:39;11.80;99.90
18894;DHT22;9579;49.488;8.226;2023-04-01T03:18:28;11.70;99.90
18894;DHT22;9579;49.488;8.226;2023-04-01T03:21:16;11.70;99.90
18894;DHT22;9579;49.488;8.226;2023-04-01T03:24:04;11.70;99.90
18894;DHT22;9579;49.488;8.226;2023-04-01T03:26:51;11.70;99.90
18894;DHT22;9579;49.488;8.226;2023-04-01T03:29:38;11.70;99.90
18894;DHT22;9579;49.488;8.226;2023-04-01T03:32:25;11.70;99.90
18894;DHT22;9579;49.488;8.226;2023-04-01T03:35:14;11.70;99.90
18894;DHT22;9579;49.488;8.226;2023-04-01T03:38:01;11.60;99.90
18894;DHT22;9579;49.488;8.226;2023-04-01T03:40:48;11.60;99.90
18894;DHT22;9579;49.488;8.226;2023-04-01T03:43:35;11.60;99.90
18894;DHT22;9579;49.488;8.226;2023-04-01T03:46:22;11.60;99.90
18894;DHT22;9579;49.488;8.226;2023-04-01T03:49:10;11.60;99.90
18894;DHT22;9579;49.488;8.226;2023-04-01T03:51:58;11.60;99.90
18894;DHT22;9579;49.488;8.226;2023-04-01T03:54:45;11.50;99.90
18894;DHT22;9579;49.488;8.226;2023-04-01T03:57:32;11.60;99.90
18894;DHT22;9579;49.488;8.226;2023-04-01T04:00:19;11.60;99.90
18894;DHT22;9579;49.488;8.226;2023-04-01T04:03:06;11.60;99.90
18894;DHT22;9579;49.488;8.226;2023-04-01T04:05:53;11.60;99.90
18894;DHT22;9579;49.488;8.226;2023-04-01T04:08:43;11.60;99.90
18894;DHT22;9579;49.488;8.226;2023-04-01T04:11:31;11.60;99.90
18894;DHT22;9579;49.488;8.226;2023-04-01T04:14:18;11.60;99.90
18894;DHT22;9579;49.488;8.226;2023-04-01T04:17:05;11.60;99.90
18894;DHT22;9579;49.488;8.226;2023-04-01T04:19:53;11.50;99.90
18894;DHT22;9579;49.488;8.226;2023-04-01T04:22:40;11.60;99.90
18894;DHT22;9579;49.488;8.226;2023-04-01T04:25:29;11.60;99.90
18894;DHT22;9579;49.488;8.226;2023-04-01T04:28:16;11.60;99.90
18894;DHT22;9579;49.488;8.226;2023-04-01T04:31:03;11.70;99.90
18894;DHT22;9579;49.488;8.226;2023-04-01T04:33:52;11.70;99.90
18894;DHT22;9579;49.488;8.226;2023-04-01T04:36:39;11.60;99.90
18894;DHT22;9579;49.488;8.226;2023-04-01T04:39:26;11.70;99.90
18894;DHT22;9579;49.488;8.226;2023-04-01T04:42:14;11.70;99.90
18894;DHT22;9579;49.488;8.226;2023-04-01T04:45:02;11.70;99.90
18894;DHT22;9579;49.488;8.226;2023-04-01T04:47:49;11.70;99.90
18894;DHT22;9579;49.488;8.226;2023-04-01T04:50:36;11.70;99.90
18894;DHT22;9579;49.488;8.226;2023-04-01T04:53:23;11.70;99.90
18894;DHT22;9579;49.488;8.226;2023-04-01T04:56:11;11.70;99.90
18894;DHT22;9579;49.488;8.226;2023-04-01T04:58:59;11.70;99.90
18894;DHT22;9579;49.488;8.226;2023-04-01T05:01:46;11.70;99.90
18894;DHT22;9579;49.488;8.226;2023-04-01T05:04:34;11.60;99.90
18894;DHT22;9579;49.488;8.226;2023-04-01T05:07:22;11.70;99.90
18894;DHT22;9579;49.488;8.226;2023-04-01T05:10:09;11.70;99.90
18894;DHT22;9579;49.488;8.226;2023-04-01T05:12:56;11.70;99.90
18894;DHT22;9579;49.488;8.226;2023-04-01T05:15:45;11.70;99.90
18894;DHT22;9579;49.488;8.226;2023-04-01T05:18:32;11.70;99.90
18894;DHT22;9579;49.488;8.226;2023-04-01T05:21:19;11.70;99.90
18894;DHT22;9579;49.488;8.226;2023-04-01T05:24:08;11.80;99.90
18894;DHT22;9579;49.488;8.226;2023-04-01T05:26:55;11.70;99.90
18894;DHT22;9579;49.488;8.226;2023-04-01T05:29:43;11.70;99.90
18894;DHT22;9579;49.488;8.226;2023-04-01T05:32:32;11.70;99.90
18894;DHT22;9579;49.488;8.226;2023-04-01T05:35:19;11.60;99.90
18894;DHT22;9579;49.488;8.226;2023-04-01T05:38:06;11.50;99.90
18894;DHT22;9579;49.488;8.226;2023-04-01T05:40:58;11.50;99.90
18894;DHT22;9579;49.488;8.226;2023-04-01T05:43:46;11.50;99.90
18894;DHT22;9579;49.488;8.226;2023-04-01T05:46:33;11.60;99.90
18894;DHT22;9579;49.488;8.226;2023-04-01T05:49:21;11.60;99.90
18894;DHT22;9579;49.488;8.226;2023-04-01T05:52:08;11.50;99.90
18894;DHT22;9579;49.488;8.226;2023-04-01T05:54:55;11.50;99.90
18894;DHT22;9579;49.488;8.226;2023-04-01T05:57:44;11.50;99.90
18894;DHT22;9579;49.488;8.226;2023-04-01T06:00:31;11.50;99.90
18894;DHT22;9579;49.488;8.226;2023-04-01T06:03:18;11.50;99.90
18894;DHT22;9579;49.488;8.226;2023-04-01T06:06:11;11.50;99.90
18894;DHT22;9579;49.488;8.226;2023-04-01T06:09:10;11.50;99.90
18894;DHT22;9579;49.488;8.226;2023-04-01T06:12:25;11.50;99.90
18894;DHT22;9579;49.488;8.226;2023-04-01T06:15:27;11.50;99.90
18894;DHT22;9579;49.488;8.226;2023-04-01T06:22:03;11.50;99.90
18894;DHT22;9579;49.488;8.226;2023-04-01T06:25:23;11.50;99.90
18894;DHT22;9579;49.488;8.226;2023-04-01T06:28:41;11.60;99.90
18894;DHT22;9579;49.488;8.226;2023-04-01T06:31:50;11.60;99.90
18894;DHT22;9579;49.488;8.226;2023-04-01T06:34:54;11.60;99.90
18894;DHT22;9579;49.488;8.226;2023-04-01T06:38:04;11.60;99.90
18894;DHT22;9579;49.488;8.226;2023-04-01T06:44:46;11.50;99.90
18894;DHT22;9579;49.488;8.226;2023-04-01T06:47:48;11.50;99.90
18894;DHT22;9579;49.488;8.226;2023-04-01T06:50:41;11.60;99.90
18894;DHT22;9579;49.488;8.226;2023-04-01T06:53:37;11.50;99.90
18894;DHT22;9579;49.488;8.226;2023-04-01T06:56:29;11.60;99.90
18894;DHT22;9579;49.488;8.226;2023-04-01T06:59:19;11.50;99.90
18894;DHT22;9579;49.488;8.226;2023-04-01T07:02:18;11.60;99.90
18894;DHT22;9579;49.488;8.226;2023-04-01T07:05:07;11.50;99.90
18894;DHT22;9579;49.488;8.226;2023-04-01T07:07:57;11.60;99.90
18894;DHT22;9579;49.488;8.226;2023-04-01T07:10:52;11.70;99.90
18894;DHT22;9579;49.488;8.226;2023-04-01T07:13:49;11.60;99.90
18894;DHT22;9579;49.488;8.226;2023-04-01T07:16:39;11.50;99.90
18894;DHT22;9579;49.488;8.226;2023-04-01T07:19:31;11.50;99.90
18894;DHT22;9579;49.488;8.226;2023-04-01T07:22:27;11.50;99.90
18894;DHT22;9579;49.488;8.226;2023-04-01T07:25:18;11.60;99.90
18894;DHT22;9579;49.488;8.226;2023-04-01T07:28:12;11.60;99.90
18894;DHT22;9579;49.488;8.226;2023-04-01T07:31:07;11.70;99.90
18894;DHT22;9579;49.488;8.226;2023-04-01T07:34:03;11.60;99.90
18894;DHT22;9579;49.488;8.226;2023-04-01T07:37:10;11.70;99.90
18894;DHT22;9579;49.488;8.226;2023-04-01T07:40:06;11.90;99.90
18894;DHT22;9579;49.488;8.226;2023-04-01T07:43:13;11.90;99.90
18894;DHT22;9579;49.488;8.226;2023-04-01T07:46:11;11.90;99.90
18894;DHT22;9579;49.488;8.226;2023-04-01T07:49:05;12.00;99.90
18894;DHT22;9579;49.488;8.226;2023-04-01T07:51:58;12.10;99.90
18894;DHT22;9579;49.488;8.226;2023-04-01T07:54:50;12.10;99.90
18894;DHT22;9579;49.488;8.226;2023-04-01T07:57:43;12.20;99.90
18894;DHT22;9579;49.488;8.226;2023-04-01T08:00:44;12.20;99.90
18894;DHT22;9579;49.488;8.226;2023-04-01T08:03:41;12.10;99.90
18894;DHT22;9579;49.488;8.226;2023-04-01T08:06:35;12.20;99.90
18894;DHT22;9579;49.488;8.226;2023-04-01T08:09:29;12.30;99.90
18894;DHT22;9579;49.488;8.226;2023-04-01T08:12:31;12.30;99.90
18894;DHT22;9579;49.488;8.226;2023-04-01T08:15:24;12.40;99.90
18894;DHT22;9579;49.488;8.226;2023-04-01T08:18:23;12.40;99.90
18894;DHT22;9579;49.488;8.226;2023-04-01T08:21:18;12.40;99.90
18894;DHT22;9579;49.488;8.226;2023-04-01T08:24:13;12.40;99.90
18894;DHT22;9579;49.488;8.226;2023-04-01T08:27:09;12.40;99.90
18894;DHT22;9579;49.488;8.226;2023-04-01T08:30:01;12.40;99.90
18894;DHT22;9579;49.488;8.226;2023-04-01T08:32:53;12.50;99.90
18894;DHT22;9579;49.488;8.226;2023-04-01T08:35:46;12.50;99.90
18894;DHT22;9579;49.488;8.226;2023-04-01T08:38:41;12.50;99.90
18894;DHT22;9579;49.488;8.226;2023-04-01T08:42:05;12.50;99.90
18894;DHT22;9579;49.488;8.226;2023-04-01T08:48:34;12.60;99.90
18894;DHT22;9579;49.488;8.226;2023-04-01T08:51:49;12.70;99.90
18894;DHT22;9579;49.488;8.226;2023-04-01T08:58:37;12.80;99.90
18894;DHT22;9579;49.488;8.226;2023-04-01T09:01:45;12.90;99.90
18894;DHT22;9579;49.488;8.226;2023-04-01T09:04:46;13.00;99.90
18894;DHT22;9579;49.488;8.226;2023-04-01T09:07:46;12.90;99.90
18894;DHT22;9579;49.488;8.226;2023-04-01T09:10:56;12.80;99.90
18894;DHT22;9579;49.488;8.226;2023-04-01T09:14:08;12.90;99.90
18894;DHT22;9579;49.488;8.226;2023-04-01T09:17:46;12.90;99.90
18894;DHT22;9579;49.488;8.226;2023-04-01T09:20:44;13.00;99.90
18894;DHT22;9579;49.488;8.226;2023-04-01T09:23:54;13.10;99.90
18894;DHT22;9579;49.488;8.226;2023-04-01T09:27:02;13.20;99.90
18894;DHT22;9579;49.488;8.226;2023-04-01T09:30:13;13.30;99.90
18894;DHT22;9579;49.488;8.226;2023-04-01T09:36:44;13.30;99.90
18894;DHT22;9579;49.488;8.226;2023-04-01T09:39:37;13.40;99.90
18894;DHT22;9579;49.488;8.226;2023-04-01T09:42:39;13.40;99.90
18894;DHT22;9579;49.488;8.226;2023-04-01T09:45:41;13.50;99.90
18894;DHT22;9579;49.488;8.226;2023-04-01T09:48:46;13.60;99.90
18894;DHT22;9579;49.488;8.226;2023-04-01T09:51:41;13.70;99.90
18894;DHT22;9579;49.488;8.226;2023-04-01T09:54:46;13.70;99.90
18894;DHT22;9579;49.488;8.226;2023-04-01T09:58:03;13.80;99.90
18894;DHT22;9579;49.488;8.226;2023-04-01T10:01:42;13.90;99.90
18894;DHT22;9579;49.488;8.226;2023-04-01T10:05:04;14.00;99.90
18894;DHT22;9579;49.488;8.226;2023-04-01T10:08:25;14.10;99.90
18894;DHT22;9579;49.488;8.226;2023-04-01T10:11:51;14.10;99.90
18894;DHT22;9579;49.488;8.226;2023-04-01T10:15:19;14.20;99.90
18894;DHT22;9579;49.488;8.226;2023-04-01T10:18:31;14.00;99.90
18894;DHT22;9579;49.488;8.226;2023-04-01T10:25:05;14.00;99.90
18894;DHT22;9579;49.488;8.226;2023-04-01T10:28:17;14.10;99.90
18894;DHT22;9579;49.488;8.226;2023-04-01T10:31:35;14.10;99.90
18894;DHT22;9579;49.488;8.226;2023-04-01T10:35:14;14.10;99.90
18894;DHT22;9579;49.488;8.226;2023-04-01T10:48:24;14.00;99.90
18894;DHT22;9579;49.488;8.226;2023-04-01T10:51:43;14.00;99.90
18894;DHT22;9579;49.488;8.226;2023-04-01T10:54:43;14.00;99.90
18894;DHT22;9579;49.488;8.226;2023-04-01T10:57:51;14.00;99.90
18894;DHT22;9579;49.488;8.226;2023-04-01T11:01:07;14.10;99.90
18894;DHT22;9579;49.488;8.226;2023-04-01T11:04:26;14.30;99.90
18894;DHT22;9579;49.488;8.226;2023-04-01T11:07:48;14.60;99.90
18894;DHT22;9579;49.488;8.226;2023-04-01T11:11:04;14.70;99.90
18894;DHT22;9579;49.488;8.226;2023-04-01T11:14:20;14.80;99.90
18894;DHT22;9579;49.488;8.226;2023-04-01T11:24:11;14.70;99.90
18894;DHT22;9579;49.488;8.226;2023-04-01T11:27:14;14.60;99.90
18894;DHT22;9579;49.488;8.226;2023-04-01T11:30:22;14.50;99.90
18894;DHT22;9579;49.488;8.226;2023-04-01T11:33:19;14.50;99.90
18894;DHT22;9579;49.488;8.226;2023-04-01T11:36:18;14.50;99.90
18894;DHT22;9579;49.488;8.226;2023-04-01T11:39:20;14.50;99.90
18894;DHT22;9579;49.488;8.226;2023-04-01T11:42:17;14.40;99.90
18894;DHT22;9579;49.488;8.226;2023-04-01T11:45:18;14.40;99.90
18894;DHT22;9579;49.488;8.226;2023-04-01T11:48:25;14.30;99.90
18894;DHT22;9579;49.488;8.226;2023-04-01T11:51:30;14.20;99.90
18894;DHT22;9579;49.488;8.226;2023-04-01T11:54:33;14.10;99.90
18894;DHT22;9579;49.488;8.226;2023-04-01T11:57:46;14.10;99.90
18894;DHT22;9579;49.488;8.226;2023-04-01T12:01:07;14.20;99.90
18894;DHT22;9579;49.488;8.226;2023-04-01T12:04:14;14.30;99.90
18894;DHT22;9579;49.488;8.226;2023-04-01T12:07:15;14.40;99.90
18894;DHT22;9579;49.488;8.226;2023-04-01T12:10:16;14.60;99.90
18894;DHT22;9579;49.488;8.226;2023-04-01T12:13:10;14.80;99.90
18894;DHT22;9579;49.488;8.226;2023-04-01T12:19:27;14.80;99.90
18894;DHT22;9579;49.488;8.226;2023-04-01T12:22:28;15.00;99.90
18894;DHT22;9579;49.488;8.226;2023-04-01T12:25:29;14.90;99.90
18894;DHT22;9579;49.488;8.226;2023-04-01T12:28:24;14.70;99.90
18894;DHT22;9579;49.488;8.226;2023-04-01T12:31:27;14.70;99.90
18894;DHT22;9579;49.488;8.226;2023-04-01T12:34:41;14.70;99.90
18894;DHT22;9579;49.488;8.226;2023-04-01T12:37:39;14.70;99.90
18894;DHT22;9579;49.488;8.226;2023-04-01T12:40:39;14.50;99.90
18894;DHT22;9579;49.488;8.226;2023-04-01T12:50:46;14.50;99.90
18894;DHT22;9579;49.488;8.226;2023-04-01T12:57:07;14.50;99.90
18894;DHT22;9579;49.488;8.226;2023-04-01T13:00:05;14.50;99.90
18894;DHT22;9579;49.488;8.226;2023-04-01T13:03:11;14.70;99.90
18894;DHT22;9579;49.488;8.226;2023-04-01T13:09:28;14.40;99.90
18894;DHT22;9579;49.488;8.226;2023-04-01T13:12:34;14.50;99.90
18894;DHT22;9579;49.488;8.226;2023-04-01T13:15:26;14.50;99.90
18894;DHT22;9579;49.488;8.226;2023-04-01T13:18:27;14.40;99.90
18894;DHT22;9579;49.488;8.226;2023-04-01T13:21:20;14.50;99.90
18894;DHT22;9579;49.488;8.226;2023-04-01T13:24:24;14.50;99.90
18894;DHT22;9579;49.488;8.226;2023-04-01T13:27:17;14.40;99.90
18894;DHT22;9579;49.488;8.226;2023-04-01T13:30:20;14.50;99.90
18894;DHT22;9579;49.488;8.226;2023-04-01T13:33:16;14.80;99.90
18894;DHT22;9579;49.488;8.226;2023-04-01T13:36:19;14.80;99.90
18894;DHT22;9579;49.488;8.226;2023-04-01T13:39:17;15.00;99.90
18894;DHT22;9579;49.488;8.226;2023-04-01T13:42:18;15.10;99.90
18894;DHT22;9579;49.488;8.226;2023-04-01T13:45:14;15.00;99.90
18894;DHT22;9579;49.488;8.226;2023-04-01T13:48:42;15.10;99.90
18894;DHT22;9579;49.488;8.226;2023-04-01T13:51:53;15.10;99.90
18894;DHT22;9579;49.488;8.226;2023-04-01T13:55:06;15.10;99.90
18894;DHT22;9579;49.488;8.226;2023-04-01T13:58:28;15.30;99.90
18894;DHT22;9579;49.488;8.226;2023-04-01T14:01:21;15.20;99.90
18894;DHT22;9579;49.488;8.226;2023-04-01T14:07:51;15.10;99.90
18894;DHT22;9579;49.488;8.226;2023-04-01T14:10:44;15.10;99.90
18894;DHT22;9579;49.488;8.226;2023-04-01T14:13:41;15.10;99.90
18894;DHT22;9579;49.488;8.226;2023-04-01T14:16:58;15.40;99.90
18894;DHT22;9579;49.488;8.226;2023-04-01T14:20:14;15.50;99.90
18894;DHT22;9579;49.488;8.226;2023-04-01T14:26:33;15.60;99.90
18894;DHT22;9579;49.488;8.226;2023-04-01T14:29:28;15.40;99.90
18894;DHT22;9579;49.488;8.226;2023-04-01T14:32:27;15.50;99.90
18894;DHT22;9579;49.488;8.226;2023-04-01T14:35:36;15.60;99.90
18894;DHT22;9579;49.488;8.226;2023-04-01T14:38:53;15.50;99.90
18894;DHT22;9579;49.488;8.226;2023-04-01T14:41:47;15.40;99.90
18894;DHT22;9579;49.488;8.226;2023-04-01T14:44:53;15.30;99.90
18894;DHT22;9579;49.488;8.226;2023-04-01T14:47:47;15.20;99.90
18894;DHT22;9579;49.488;8.226;2023-04-01T14:50:41;15.00;99.90
18894;DHT22;9579;49.488;8.226;2023-04-01T14:53:33;15.00;99.90
18894;DHT22;9579;49.488;8.226;2023-04-01T14:56:40;15.10;99.90
18894;DHT22;9579;49.488;8.226;2023-04-01T14:59:28;15.30;99.90
18894;DHT22;9579;49.488;8.226;2023-04-01T15:02:37;15.50;99.90
18894;DHT22;9579;49.488;8.226;2023-04-01T15:05:39;15.50;99.90
18894;DHT22;9579;49.488;8.226;2023-04-01T15:08:35;15.60;99.90
18894;DHT22;9579;49.488;8.226;2023-04-01T15:11:32;15.80;99.70
18894;DHT22;9579;49.488;8.226;2023-04-01T15:14:34;15.80;99.90
18894;DHT22;9579;49.488;8.226;2023-04-01T15:17:43;15.80;99.60
18894;DHT22;9579;49.488;8.226;2023-04-01T15:20:43;15.80;99.50
18894;DHT22;9579;49.488;8.226;2023-04-01T15:23:41;16.10;99.50
18894;DHT22;9579;49.488;8.226;2023-04-01T15:26:46;16.00;99.20
18894;DHT22;9579;49.488;8.226;2023-04-01T15:29:59;15.80;99.50
18894;DHT22;9579;49.488;8.226;2023-04-01T15:33:14;15.60;99.70
18894;DHT22;9579;49.488;8.226;2023-04-01T15:36:12;15.40;99.50
18894;DHT22;9579;49.488;8.226;2023-04-01T15:39:13;15.10;99.90
18894;DHT22;9579;49.488;8.226;2023-04-01T15:42:15;15.10;99.90
18894;DHT22;9579;49.488;8.226;2023-04-01T15:45:16;15.30;99.90
18894;DHT22;9579;49.488;8.226;2023-04-01T15:48:18;15.40;99.60
18894;DHT22;9579;49.488;8.226;2023-04-01T15:51:17;15.40;99.70
18894;DHT22;9579;49.488;8.226;2023-04-01T15:54:32;15.30;99.90
18894;DHT22;9579;49.488;8.226;2023-04-01T15:57:29;15.10;99.90
18894;DHT22;9579;49.488;8.226;2023-04-01T16:00:24;15.00;99.90
18894;DHT22;9579;49.488;8.226;2023-04-01T16:03:31;14.80;99.90
18894;DHT22;9579;49.488;8.226;2023-04-01T16:06:43;14.70;99.90
18894;DHT22;9579;49.488;8.226;2023-04-01T16:09:47;14.50;99.90
18894;DHT22;9579;49.488;8.226;2023-04-01T16:12:48;14.50;99.90
18894;DHT22;9579;49.488;8.226;2023-04-01T16:15:46;14.40;99.90
18894;DHT22;9579;49.488;8.226;2023-04-01T16:18:59;14.60;99.90
18894;DHT22;9579;49.488;8.226;2023-04-01T16:21:53;14.80;99.90
18894;DHT22;9579;49.488;8.226;2023-04-01T16:24:45;14.90;99.90
18894;DHT22;9579;49.488;8.226;2023-04-01T16:27:40;14.90;99.90
18894;DHT22;9579;49.488;8.226;2023-04-01T16:30:37;15.00;99.90
18894;DHT22;9579;49.488;8.226;2023-04-01T16:33:31;15.10;99.90
18894;DHT22;9579;49.488;8.226;2023-04-01T16:36:27;15.20;99.90
18894;DHT22;9579;49.488;8.226;2023-04-01T16:39:33;15.20;99.20
18894;DHT22;9579;49.488;8.226;2023-04-01T16:42:34;15.20;99.50
18894;DHT22;9579;49.488;8.226;2023-04-01T16:45:30;15.20;99.20
18894;DHT22;9579;49.488;8.226;2023-04-01T16:48:24;15.30;99.10
18894;DHT22;9579;49.488;8.226;2023-04-01T16:51:15;15.40;99.30
18894;DHT22;9579;49.488;8.226;2023-04-01T16:54:13;15.40;98.80
18894;DHT22;9579;49.488;8.226;2023-04-01T16:57:15;15.00;98.90
18894;DHT22;9579;49.488;8.226;2023-04-01T17:00:37;15.00;99.40
18894;DHT22;9579;49.488;8.226;2023-04-01T17:04:18;15.00;99.50
18894;DHT22;9579;49.488;8.226;2023-04-01T17:07:10;15.00;98.90
18894;DHT22;9579;49.488;8.226;2023-04-01T17:10:39;15.00;98.70
18894;DHT22;9579;49.488;8.226;2023-04-01T17:13:37;14.90;98.80
18894;DHT22;9579;49.488;8.226;2023-04-01T17:16:51;14.70;99.00
18894;DHT22;9579;49.488;8.226;2023-04-01T17:20:18;14.50;99.30
18894;DHT22;9579;49.488;8.226;2023-04-01T17:23:20;14.40;99.40
18894;DHT22;9579;49.488;8.226;2023-04-01T17:26:28;14.40;99.60
18894;DHT22;9579;49.488;8.226;2023-04-01T17:29:28;14.30;99.70
18894;DHT22;9579;49.488;8.226;2023-04-01T17:32:23;14.10;99.90
18894;DHT22;9579;49.488;8.226;2023-04-01T17:35:30;13.90;99.90
18894;DHT22;9579;49.488;8.226;2023-04-01T17:38:30;13.90;99.90
18894;DHT22;9579;49.488;8.226;2023-04-01T17:41:27;13.90;99.90
18894;DHT22;9579;49.488;8.226;2023-04-01T17:44:26;13.80;99.90
18894;DHT22;9579;49.488;8.226;2023-04-01T17:47:36;13.70;99.90
18894;DHT22;9579;49.488;8.226;2023-04-01T17:50:36;13.60;99.90
18894;DHT22;9579;49.488;8.226;2023-04-01T17:53:36;13.60;99.90
18894;DHT22;9579;49.488;8.226;2023-04-01T17:56:42;13.50;99.90
18894;DHT22;9579;49.488;8.226;2023-04-01T17:59:36;13.50;99.90
18894;DHT22;9579;49.488;8.226;2023-04-01T18:02:31;13.50;99.90
18894;DHT22;9579;49.488;8.226;2023-04-01T18:05:41;13.40;99.90
18894;DHT22;9579;49.488;8.226;2023-04-01T18:08:48;13.40;99.90
18894;DHT22;9579;49.488;8.226;2023-04-01T18:11:54;13.30;99.90
18894;DHT22;9579;49.488;8.226;2023-04-01T18:15:11;13.30;99.90
18894;DHT22;9579;49.488;8.226;2023-04-01T18:18:11;13.30;99.90
18894;DHT22;9579;49.488;8.226;2023-04-01T18:21:08;13.10;99.90
18894;DHT22;9579;49.488;8.226;2023-04-01T18:24:05;13.10;99.90
18894;DHT22;9579;49.488;8.226;2023-04-01T18:31:08;12.90;99.90
18894;DHT22;9579;49.488;8.226;2023-04-01T18:34:01;12.90;99.90
18894;DHT22;9579;49.488;8.226;2023-04-01T18:36:53;12.80;99.90
18894;DHT22;9579;49.488;8.226;2023-04-01T18:39:47;12.80;99.90
18894;DHT22;9579;49.488;8.226;2023-04-01T18:42:44;12.90;99.90
18894;DHT22;9579;49.488;8.226;2023-04-01T18:45:36;12.80;99.90
18894;DHT22;9579;49.488;8.226;2023-04-01T18:48:40;12.80;99.90
18894;DHT22;9579;49.488;8.226;2023-04-01T18:51:38;12.80;99.90
18894;DHT22;9579;49.488;8.226;2023-04-01T18:54:30;12.90;99.90
18894;DHT22;9579;49.488;8.226;2023-04-01T18:57:19;12.90;99.90
18894;DHT22;9579;49.488;8.226;2023-04-01T19:00:14;12.90;99.90
18894;DHT22;9579;49.488;8.226;2023-04-01T19:03:10;13.00;99.90
18894;DHT22;9579;49.488;8.226;2023-04-01T19:06:13;13.10;99.90
18894;DHT22;9579;49.488;8.226;2023-04-01T19:09:24;13.00;99.90
18894;DHT22;9579;49.488;8.226;2023-04-01T19:12:31;13.30;99.90
18894;DHT22;9579;49.488;8.226;2023-04-01T19:15:28;13.00;99.90
18894;DHT22;9579;49.488;8.226;2023-04-01T19:18:41;13.00;99.90
18894;DHT22;9579;49.488;8.226;2023-04-01T19:21:38;13.00;99.90
18894;DHT22;9579;49.488;8.226;2023-04-01T19:24:47;13.10;99.90
18894;DHT22;9579;49.488;8.226;2023-04-01T19:27:42;13.10;99.90
18894;DHT22;9579;49.488;8.226;2023-04-01T19:30:40;13.30;99.90
18894;DHT22;9579;49.488;8.226;2023-04-01T19:33:41;13.20;99.90
18894;DHT22;9579;49.488;8.226;2023-04-01T19:36:38;13.10;99.90
18894;DHT22;9579;49.488;8.226;2023-04-01T19:39:42;12.90;99.90
18894;DHT22;9579;49.488;8.226;2023-04-01T19:42:45;12.90;99.90
18894;DHT22;9579;49.488;8.226;2023-04-01T19:45:41;12.90;99.90
18894;DHT22;9579;49.488;8.226;2023-04-01T19:48:44;13.00;99.90
18894;DHT22;9579;49.488;8.226;2023-04-01T19:51:45;13.00;99.90
18894;DHT22;9579;49.488;8.226;2023-04-01T19:54:43;13.10;99.90
18894;DHT22;9579;49.488;8.226;2023-04-01T19:57:40;13.20;99.90
18894;DHT22;9579;49.488;8.226;2023-04-01T20:00:37;13.20;99.90
18894;DHT22;9579;49.488;8.226;2023-04-01T20:03:36;13.10;99.90
18894;DHT22;9579;49.488;8.226;2023-04-01T20:06:32;13.10;99.90
18894;DHT22;9579;49.488;8.226;2023-04-01T20:09:43;13.10;99.90